Time;durP1;ratioP1;P1;durP2;ratioP2;P2;SDS_P1;SDS_P2;PMS_P1;PMS_P2;Temp;Humidity;BMP_temperature;BMP_pressure;BME280_temperature;BME280_humidity;BME280_pressure;Samples;Min_cycle;Max_cycle;Signal;HPM_P1;HPM_P2
2022/04/16 00:00:59;;;;;;;18.05;6.65;;;8.20;99.90;;;;;;5012638;28;20022;-76
2022/04/16 00:03:25;;;;;;;25.80;7.82;;;8.20;99.90;;;;;;5013781;28;20066;-77
2022/04/16 00:05:55;;;;;;;22.95;7.22;;;8.20;99.90;;;;;;5013998;28;20383;-78
2022/04/16 00:08:21;;;;;;;16.60;6.78;;;8.20;99.90;;;;;;4994780;28;20038;-76
2022/04/16 00:10:47;;;;;;;15.00;6.70;;;8.20;99.90;;;;;;4995751;28;20026;-77
2022/04/16 00:13:14;;;;;;;16.10;7.00;;;8.20;99.90;;;;;;4995297;28;20117;-78
2022/04/16 00:15:40;;;;;;;19.50;7.28;;;8.20;99.90;;;;;;4994377;28;20022;-78
2022/04/16 00:18:05;;;;;;;17.20;6.95;;;8.10;99.90;;;;;;4994766;28;20026;-77
2022/04/16 00:20:34;;;;;;;17.05;6.90;;;8.10;99.90;;;;;;5013055;28;20022;-77
2022/04/16 00:23:00;;;;;;;12.63;7.45;;;8.10;99.90;;;;;;4994928;28;20034;-77
2022/04/16 00:25:26;;;;;;;19.63;7.32;;;8.10;99.90;;;;;;5013090;28;20050;-75
2022/04/16 00:27:52;;;;;;;13.63;6.15;;;8.10;99.90;;;;;;4994896;28;20053;-78
2022/04/16 00:30:18;;;;;;;17.23;6.93;;;8.10;99.90;;;;;;5013145;28;20035;-76
2022/04/16 00:32:44;;;;;;;10.52;5.95;;;8.10;99.90;;;;;;4994635;28;20113;-77
2022/04/16 00:35:10;;;;;;;14.60;7.53;;;8.20;99.90;;;;;;4996042;28;20054;-76
2022/04/16 00:37:37;;;;;;;15.65;5.97;;;8.20;99.90;;;;;;5013235;28;20030;-76
2022/04/16 00:40:03;;;;;;;14.63;6.90;;;8.20;99.90;;;;;;5012717;28;20045;-75
2022/04/16 00:42:45;;;;;;;18.05;7.10;;;8.20;99.90;;;;;;5014172;28;20042;-76
2022/04/16 00:45:12;;;;;;;12.90;7.18;;;8.20;99.90;;;;;;5016747;28;20054;-78
2022/04/16 00:47:38;;;;;;;14.60;7.18;;;8.20;99.90;;;;;;5016267;28;20054;-76
2022/04/16 00:50:05;;;;;;;12.60;6.28;;;8.20;99.90;;;;;;4999142;28;20054;-76
2022/04/16 00:52:31;;;;;;;24.58;7.30;;;8.20;99.90;;;;;;4999039;28;20102;-77
2022/04/16 00:54:58;;;;;;;14.38;7.28;;;8.20;99.90;;;;;;5016428;28;20061;-77
2022/04/16 00:57:24;;;;;;;16.25;7.15;;;8.20;99.90;;;;;;4999243;28;20387;-77
2022/04/16 00:59:50;;;;;;;16.13;7.57;;;8.20;99.90;;;;;;4999312;28;20139;-79
2022/04/16 01:02:15;;;;;;;15.30;6.72;;;8.30;99.90;;;;;;4999019;28;20021;-78
2022/04/16 01:04:41;;;;;;;14.45;7.40;;;8.30;99.90;;;;;;5016152;28;20092;-77
2022/04/16 01:07:07;;;;;;;18.08;7.38;;;8.10;99.90;;;;;;4998982;28;20029;-77
2022/04/16 01:09:33;;;;;;;17.45;7.93;;;8.20;99.90;;;;;;5016031;28;20179;-77
2022/04/16 01:11:59;;;;;;;15.27;7.63;;;8.20;99.90;;;;;;5016310;28;20022;-76
2022/04/16 01:14:26;;;;;;;17.55;6.85;;;8.20;99.90;;;;;;5016845;28;20037;-78
2022/04/16 01:16:55;;;;;;;21.42;7.90;;;8.20;99.90;;;;;;4998469;28;20034;-78
2022/04/16 01:19:21;;;;;;;18.75;7.45;;;8.20;99.90;;;;;;5016134;28;20037;-78
2022/04/16 01:21:48;;;;;;;16.42;7.28;;;8.10;99.90;;;;;;5016177;28;20102;-78
2022/04/16 01:24:14;;;;;;;14.10;7.05;;;8.10;99.90;;;;;;5016207;28;20038;-76
2022/04/16 01:26:41;;;;;;;17.42;6.60;;;8.10;99.90;;;;;;4998531;28;20514;-76
2022/04/16 01:29:08;;;;;;;14.75;6.53;;;8.10;99.90;;;;;;4998636;28;20505;-77
2022/04/16 01:31:34;;;;;;;12.75;5.88;;;8.10;99.90;;;;;;4998139;28;20371;-77
2022/04/16 01:34:00;;;;;;;10.38;4.65;;;7.90;99.90;;;;;;4998095;28;20070;-78
2022/04/16 01:36:29;;;;;;;13.50;6.10;;;7.90;99.90;;;;;;4998273;28;20040;-78
2022/04/16 01:38:57;;;;;;;16.55;6.30;;;7.90;99.90;;;;;;5015353;28;20017;-77
2022/04/16 01:41:25;;;;;;;11.48;5.05;;;7.90;99.90;;;;;;4998323;28;20462;-77
2022/04/16 01:43:51;;;;;;;11.68;4.55;;;7.80;99.90;;;;;;5016194;28;20506;-78
2022/04/16 01:46:17;;;;;;;6.38;3.33;;;7.70;99.90;;;;;;4997369;28;20874;-75
2022/04/16 01:48:43;;;;;;;4.93;2.70;;;7.60;99.90;;;;;;4998004;28;20078;-75
2022/04/16 01:51:10;;;;;;;8.02;2.40;;;7.50;99.90;;;;;;5015266;28;20030;-76
2022/04/16 01:53:36;;;;;;;6.55;2.20;;;7.50;99.90;;;;;;4996266;28;20045;-73
2022/04/16 01:56:01;;;;;;;12.15;2.55;;;7.30;99.90;;;;;;4997801;28;20022;-77
2022/04/16 01:58:27;;;;;;;4.63;2.13;;;7.20;99.90;;;;;;5015149;28;20612;-77
2022/04/16 02:00:54;;;;;;;3.25;1.90;;;7.20;99.90;;;;;;5014938;28;20080;-78
2022/04/16 02:03:20;;;;;;;5.85;2.55;;;7.10;99.90;;;;;;4997552;28;20473;-76
2022/04/16 02:05:47;;;;;;;3.58;2.30;;;7.10;99.90;;;;;;4997673;28;20068;-79
2022/04/16 02:08:12;;;;;;;4.40;2.22;;;7.00;99.90;;;;;;4997187;28;20022;-79
2022/04/16 02:10:38;;;;;;;5.18;2.45;;;7.00;99.90;;;;;;4997679;28;20053;-76
2022/04/16 02:13:04;;;;;;;4.10;2.30;;;6.90;99.90;;;;;;4998026;28;20041;-78
2022/04/16 02:15:29;;;;;;;9.38;2.50;;;6.90;99.90;;;;;;4997471;28;20104;-78
2022/04/16 02:17:56;;;;;;;4.45;2.50;;;6.80;99.90;;;;;;5014865;28;20487;-79
2022/04/16 02:20:23;;;;;;;7.03;3.13;;;6.70;99.90;;;;;;4997261;28;20500;-79
2022/04/16 02:22:52;;;;;;;9.07;2.90;;;6.60;99.90;;;;;;4997158;28;20034;-78
2022/04/16 02:25:18;;;;;;;6.05;2.58;;;6.70;99.90;;;;;;4997438;28;20774;-78
2022/04/16 02:27:44;;;;;;;5.60;2.80;;;6.60;99.90;;;;;;5014701;28;20078;-77
2022/04/16 02:30:12;;;;;;;6.68;2.55;;;6.70;99.90;;;;;;4997004;28;20035;-77
2022/04/16 02:32:39;;;;;;;4.95;2.78;;;6.50;99.90;;;;;;4998914;28;20057;-79
2022/04/16 02:35:09;;;;;;;7.72;2.22;;;6.50;99.90;;;;;;4997028;28;20057;-78
2022/04/16 02:37:35;;;;;;;4.85;2.50;;;6.40;99.90;;;;;;4996707;28;20028;-79
2022/04/16 02:40:01;;;;;;;6.15;2.53;;;6.40;99.90;;;;;;5015595;28;20058;-78
2022/04/16 02:42:27;;;;;;;4.43;2.38;;;6.30;99.90;;;;;;4997023;28;20026;-78
2022/04/16 02:47:37;;;;;;;;;;;6.20;99.90;;;;;;5015173;28;20082;-79
2022/04/16 02:50:03;;;;;;;6.47;2.10;;;6.20;99.90;;;;;;5014074;28;19909;-77
2022/04/16 02:52:34;;;;;;;2.70;1.40;;;6.10;99.90;;;;;;4996805;28;20023;-79
2022/04/16 02:55:05;;;;;;;5.82;2.00;;;6.10;99.90;;;;;;5013938;28;20030;-80
2022/04/16 02:57:31;;;;;;;2.15;1.20;;;6.00;99.90;;;;;;5014718;28;20025;-79
2022/04/16 02:59:57;;;;;;;2.95;1.67;;;6.00;99.90;;;;;;4996816;28;20085;-78
2022/04/16 03:02:23;;;;;;;3.45;1.27;;;5.90;99.90;;;;;;5014577;28;20031;-77
2022/04/16 03:04:50;;;;;;;3.65;1.40;;;5.90;99.90;;;;;;5013733;28;20058;-78
2022/04/16 03:07:18;;;;;;;1.73;0.95;;;5.80;99.90;;;;;;4997937;28;20061;-78
2022/04/16 03:09:44;;;;;;;1.77;1.13;;;5.80;99.90;;;;;;4996155;28;20373;-78
2022/04/16 03:12:10;;;;;;;2.45;1.05;;;5.70;99.90;;;;;;5014129;28;20485;-78
2022/04/16 03:17:40;;;;;;;3.72;0.95;;;5.60;99.90;;;;;;4991848;28;20459;-77
2022/04/16 03:20:07;;;;;;;3.00;0.90;;;5.60;99.90;;;;;;4974471;28;20022;-79
2022/04/16 03:22:33;;;;;;;1.75;1.15;;;5.60;99.90;;;;;;5002294;28;20042;-77
2022/04/16 03:25:03;;;;;;;2.38;1.05;;;5.60;99.90;;;;;;4996046;28;20053;-77
2022/04/16 03:27:29;;;;;;;4.05;1.40;;;5.50;99.90;;;;;;4996368;28;20164;-78
2022/04/16 03:29:54;;;;;;;3.47;1.35;;;5.50;99.90;;;;;;4995962;28;20027;-77
2022/04/16 03:32:20;;;;;;;5.00;1.25;;;5.40;99.90;;;;;;4995573;28;20022;-77
2022/04/16 03:34:46;;;;;;;1.63;1.08;;;5.40;99.90;;;;;;4996187;28;20117;-78
2022/04/16 03:37:12;;;;;;;4.80;1.35;;;5.50;99.90;;;;;;5013721;28;20022;-78
2022/04/16 03:39:37;;;;;;;2.30;0.93;;;5.40;99.90;;;;;;5014011;28;20037;-79
2022/04/16 03:42:03;;;;;;;2.17;1.02;;;5.30;99.90;;;;;;5014784;28;20100;-80
2022/04/16 03:44:29;;;;;;;5.07;1.27;;;5.30;99.90;;;;;;5012860;28;20027;-78
2022/04/16 03:46:55;;;;;;;1.98;1.13;;;5.30;99.90;;;;;;5013987;28;20080;-79
2022/04/16 03:49:22;;;;;;;5.20;1.85;;;5.20;99.90;;;;;;4996119;28;20058;-77
2022/04/16 03:51:48;;;;;;;2.85;1.60;;;5.20;99.90;;;;;;4995643;28;20077;-78
2022/04/16 04:00:00;;;;;;;7.38;2.13;;;5.10;99.90;;;;;;5013796;28;21387;-78
2022/04/16 04:02:29;;;;;;;10.60;2.57;;;5.10;99.90;;;;;;5011654;28;20069;-79
2022/04/16 04:04:55;;;;;;;5.60;1.98;;;5.00;99.90;;;;;;4996568;28;20033;-79
2022/04/16 04:07:21;;;;;;;9.88;2.50;;;5.00;99.90;;;;;;4995611;28;20105;-78
2022/04/16 04:09:47;;;;;;;4.57;2.03;;;4.80;99.90;;;;;;5013556;28;20030;-78
2022/04/16 04:12:14;;;;;;;3.28;1.65;;;4.90;99.90;;;;;;5012576;28;20053;-78
2022/04/16 04:14:41;;;;;;;2.35;1.27;;;4.80;99.90;;;;;;5012545;28;20042;-77
2022/04/16 04:17:08;;;;;;;4.70;1.73;;;4.80;99.90;;;;;;5012741;28;20022;-77
2022/04/16 04:19:45;;;;;;;2.08;1.35;;;4.70;99.90;;;;;;5013005;28;20049;-78
2022/04/16 04:22:14;;;;;;;2.70;1.20;;;4.60;99.90;;;;;;5012598;28;20489;-78
2022/04/16 04:24:41;;;;;;;2.70;1.17;;;4.60;99.90;;;;;;4996394;28;20037;-77
2022/04/16 04:27:07;;;;;;;3.65;1.85;;;4.60;99.90;;;;;;4995378;28;20026;-77
2022/04/16 04:29:33;;;;;;;2.58;1.23;;;4.60;99.90;;;;;;5012546;28;20077;-78
2022/04/16 04:32:00;;;;;;;7.20;1.25;;;4.60;99.90;;;;;;4995358;28;20049;-78
2022/04/16 04:34:25;;;;;;;4.05;1.33;;;4.50;99.90;;;;;;5014583;28;20058;-79
2022/04/16 04:36:52;;;;;;;3.88;1.45;;;4.50;99.90;;;;;;5011660;28;20030;-78
2022/04/16 04:39:18;;;;;;;5.13;1.77;;;4.50;99.90;;;;;;4995142;28;20049;-78
2022/04/16 04:41:44;;;;;;;9.23;1.00;;;4.40;99.90;;;;;;4994898;28;20014;-77
2022/04/16 04:44:15;;;;;;;3.45;1.60;;;4.50;99.90;;;;;;5013080;28;21370;-78
2022/04/16 04:46:49;;;;;;;3.38;1.60;;;4.40;99.90;;;;;;5013163;28;20095;-79
2022/04/16 04:49:15;;;;;;;6.50;1.42;;;4.40;99.90;;;;;;4994690;28;20053;-78
2022/04/16 04:51:41;;;;;;;3.88;0.77;;;4.40;99.90;;;;;;4995210;28;20053;-77
2022/04/16 04:54:07;;;;;;;6.03;1.13;;;4.40;99.90;;;;;;4994474;28;20074;-77
2022/04/16 04:56:36;;;;;;;1.88;0.98;;;4.40;99.90;;;;;;5012782;28;20026;-78
2022/04/16 04:59:03;;;;;;;1.38;0.70;;;4.40;99.90;;;;;;5013503;28;20018;-77
2022/04/16 05:01:30;;;;;;;2.55;1.02;;;4.30;99.90;;;;;;4995514;28;20112;-80
2022/04/16 05:03:56;;;;;;;6.47;0.73;;;4.30;99.90;;;;;;4994300;28;20108;-76
2022/04/16 05:06:22;;;;;;;0.70;0.47;;;4.40;99.90;;;;;;5013232;28;20042;-76
2022/04/16 05:08:56;;;;;;;1.20;1.02;;;4.40;99.90;;;;;;4994658;28;20092;-78
2022/04/16 05:11:31;;;;;;;1.52;0.75;;;4.40;99.90;;;;;;4995352;28;20033;-78
2022/04/16 05:13:57;;;;;;;5.70;1.42;;;4.40;99.90;;;;;;4995541;28;20064;-78
2022/04/16 05:16:23;;;;;;;2.03;1.02;;;4.40;99.90;;;;;;5012481;28;20026;-76
2022/04/16 05:18:49;;;;;;;1.20;1.00;;;4.40;99.90;;;;;;5012268;28;20037;-75
2022/04/16 05:21:14;;;;;;;1.20;0.68;;;4.40;99.90;;;;;;4994188;28;20030;-77
2022/04/16 05:23:40;;;;;;;1.60;0.80;;;4.40;99.90;;;;;;4994658;28;20030;-78
2022/04/16 05:26:10;;;;;;;1.65;1.20;;;4.50;99.90;;;;;;5012628;28;20105;-80
2022/04/16 05:28:39;;;;;;;8.23;1.00;;;4.60;99.90;;;;;;5013782;28;20056;-77
2022/04/16 05:31:05;;;;;;;7.82;1.58;;;4.60;99.90;;;;;;4998077;28;20059;-75
2022/04/16 05:36:16;;;;;;;;;;;4.70;99.90;;;;;;5013562;28;20045;-76
2022/04/16 05:38:42;;;;;;;4.00;1.48;;;4.70;99.90;;;;;;5014913;28;19917;-76
2022/04/16 05:41:07;;;;;;;2.65;1.02;;;4.80;99.90;;;;;;5017721;28;20028;-75
2022/04/16 05:43:33;;;;;;;1.58;0.98;;;4.80;99.90;;;;;;5016007;28;20122;-74
2022/04/16 05:45:58;;;;;;;6.07;1.42;;;4.90;99.90;;;;;;5015244;28;20054;-74
2022/04/16 05:48:25;;;;;;;1.50;0.80;;;4.90;99.90;;;;;;4997729;28;20077;-75
2022/04/16 05:50:52;;;;;;;1.73;0.88;;;5.00;99.90;;;;;;5015235;28;20042;-75
2022/04/16 05:53:18;;;;;;;1.92;0.90;;;5.00;99.90;;;;;;5016277;28;20143;-74
2022/04/16 05:55:47;;;;;;;2.95;1.73;;;5.00;99.90;;;;;;5014090;28;20034;-74
2022/04/16 05:58:14;;;;;;;2.45;0.70;;;5.00;99.90;;;;;;4997599;28;20018;-74
2022/04/16 06:00:44;;;;;;;1.08;0.85;;;4.90;99.90;;;;;;5016174;28;20034;-75
2022/04/16 06:03:10;;;;;;;8.43;1.60;;;5.00;99.90;;;;;;5015368;28;20066;-74
2022/04/16 06:05:36;;;;;;;2.78;0.93;;;5.00;99.90;;;;;;4997515;28;20030;-74
2022/04/16 06:08:02;;;;;;;4.22;1.23;;;5.00;99.90;;;;;;5015083;28;20474;-75
2022/04/16 06:10:28;;;;;;;1.33;0.70;;;5.10;99.90;;;;;;5015047;28;20022;-74
2022/04/16 06:12:54;;;;;;;3.38;1.55;;;5.20;99.90;;;;;;5014984;28;20490;-75
2022/04/16 06:15:20;;;;;;;4.95;1.40;;;5.20;99.90;;;;;;5014968;28;20033;-73
2022/04/16 06:17:47;;;;;;;1.60;0.82;;;5.20;99.90;;;;;;5013738;28;20026;-74
2022/04/16 06:20:13;;;;;;;2.97;1.23;;;5.20;99.90;;;;;;5014536;28;20068;-73
2022/04/16 06:22:39;;;;;;;7.15;1.15;;;5.30;99.90;;;;;;4998236;28;20022;-75
2022/04/16 06:25:06;;;;;;;1.73;1.00;;;5.30;99.90;;;;;;5013486;28;20034;-74
2022/04/16 06:27:31;;;;;;;1.42;0.85;;;5.30;99.90;;;;;;5015524;28;20112;-74
2022/04/16 06:29:57;;;;;;;3.25;1.17;;;5.40;99.90;;;;;;4997262;28;20056;-74
2022/04/16 06:32:23;;;;;;;8.43;0.70;;;5.40;99.90;;;;;;5014846;28;20454;-73
2022/04/16 06:34:49;;;;;;;1.23;0.80;;;5.50;99.90;;;;;;5015884;28;20045;-73
2022/04/16 06:37:15;;;;;;;1.55;0.65;;;5.60;99.90;;;;;;4997005;28;20026;-74
2022/04/16 06:39:41;;;;;;;2.03;1.08;;;5.50;99.90;;;;;;5013523;28;20030;-77
2022/04/16 06:42:06;;;;;;;1.63;0.70;;;5.60;99.90;;;;;;5013732;28;20030;-75
2022/04/16 06:44:32;;;;;;;1.75;0.77;;;5.60;99.90;;;;;;5014139;28;20033;-76
2022/04/16 06:46:58;;;;;;;2.10;0.95;;;5.60;99.90;;;;;;5011139;28;20060;-75
2022/04/16 06:49:25;;;;;;;2.42;0.85;;;5.70;99.90;;;;;;5013242;28;20106;-76
2022/04/16 06:51:52;;;;;;;2.83;1.02;;;5.80;99.90;;;;;;4996619;28;20513;-76
2022/04/16 06:54:18;;;;;;;3.90;0.85;;;5.90;99.90;;;;;;4996973;28;20049;-76
2022/04/16 06:56:44;;;;;;;5.10;1.15;;;6.00;99.90;;;;;;5013395;28;20034;-74
2022/04/16 06:59:09;;;;;;;5.97;0.95;;;6.00;99.90;;;;;;5013460;28;20022;-76
2022/04/16 07:01:35;;;;;;;2.95;1.38;;;6.10;99.90;;;;;;4996915;28;20072;-74
2022/04/16 07:04:01;;;;;;;0.50;0.40;;;6.20;99.90;;;;;;4996427;28;20090;-74
2022/04/16 07:06:26;;;;;;;1.48;0.82;;;6.30;99.90;;;;;;4996741;28;20057;-77
2022/04/16 07:08:54;;;;;;;2.75;0.98;;;6.40;99.90;;;;;;5015449;28;20037;-77
2022/04/16 07:11:20;;;;;;;2.03;0.77;;;6.40;99.90;;;;;;4997122;28;20034;-75
2022/04/16 07:13:45;;;;;;;1.92;1.00;;;6.50;99.90;;;;;;5014133;28;20061;-78
2022/04/16 07:16:11;;;;;;;3.88;0.93;;;6.60;99.90;;;;;;5013372;28;20025;-76
2022/04/16 07:18:37;;;;;;;1.60;0.88;;;6.80;99.90;;;;;;4995796;28;20479;-76
2022/04/16 07:21:02;;;;;;;1.02;0.63;;;6.90;99.90;;;;;;5014608;28;20027;-75
2022/04/16 07:23:28;;;;;;;0.77;0.50;;;7.00;99.90;;;;;;4996761;28;20030;-78
2022/04/16 07:25:56;;;;;;;0.73;0.50;;;7.10;99.90;;;;;;4996501;28;20018;-78
2022/04/16 07:28:22;;;;;;;2.67;1.27;;;7.20;99.90;;;;;;5013654;28;20027;-78
2022/04/16 07:30:50;;;;;;;1.25;0.77;;;7.30;99.90;;;;;;4995650;28;20081;-77
2022/04/16 07:33:16;;;;;;;1.40;0.75;;;7.40;99.90;;;;;;4995522;28;20038;-76
2022/04/16 07:35:42;;;;;;;0.55;0.30;;;7.50;99.90;;;;;;4996172;28;20045;-76
2022/04/16 07:38:08;;;;;;;2.03;0.55;;;7.60;99.90;;;;;;5013245;28;20110;-77
2022/04/16 07:40:34;;;;;;;1.10;0.52;;;7.70;99.90;;;;;;4994788;28;20022;-77
2022/04/16 07:43:01;;;;;;;6.00;0.95;;;7.70;99.90;;;;;;5012120;28;20474;-77
2022/04/16 07:45:28;;;;;;;1.95;0.60;;;7.80;99.90;;;;;;5013521;28;20023;-76
2022/04/16 07:47:53;;;;;;;0.57;0.38;;;7.90;99.90;;;;;;5013158;28;20061;-76
2022/04/16 07:50:19;;;;;;;1.05;0.55;;;7.90;99.90;;;;;;4995395;28;20120;-76
2022/04/16 07:52:46;;;;;;;0.82;0.40;;;7.90;99.90;;;;;;4995646;28;20433;-74
2022/04/16 07:55:13;;;;;;;0.65;0.45;;;8.00;99.90;;;;;;5013765;28;20041;-75
2022/04/16 07:57:38;;;;;;;0.88;0.60;;;8.10;99.90;;;;;;4995500;28;20034;-75
2022/04/16 08:00:08;;;;;;;0.15;0.10;;;8.20;99.90;;;;;;5013134;28;20034;-75
2022/04/16 08:02:34;;;;;;;1.00;0.60;;;8.30;99.90;;;;;;4995842;28;20052;-76
2022/04/16 08:05:00;;;;;;;1.60;0.55;;;8.40;99.90;;;;;;4994464;28;20029;-72
2022/04/16 08:07:25;;;;;;;0.70;0.30;;;8.60;99.90;;;;;;5010312;28;20023;-75
2022/04/16 08:09:52;;;;;;;0.30;0.22;;;8.60;99.90;;;;;;5012448;28;20030;-77
2022/04/16 08:12:18;;;;;;;0.45;0.30;;;8.50;99.90;;;;;;5011151;28;20711;-77
2022/04/16 08:14:43;;;;;;;0.50;0.30;;;8.60;99.90;;;;;;5010543;28;20090;-77
2022/04/16 08:17:09;;;;;;;1.42;0.60;;;8.80;99.90;;;;;;4994861;28;20026;-75
2022/04/16 08:19:35;;;;;;;4.07;0.70;;;8.90;99.90;;;;;;5012753;28;20033;-78
2022/04/16 08:22:00;;;;;;;0.73;0.40;;;9.00;99.90;;;;;;5012167;28;20041;-76
2022/04/16 08:26:53;;;;;;;0.55;0.40;;;9.30;99.90;;;;;;5014151;28;20076;-75
2022/04/16 08:29:19;;;;;;;0.43;0.32;;;9.40;99.90;;;;;;5012692;28;20041;-75
2022/04/16 08:31:45;;;;;;;1.50;0.40;;;9.50;99.90;;;;;;5012762;28;20046;-76
2022/04/16 08:34:10;;;;;;;0.40;0.30;;;9.60;99.90;;;;;;5012945;28;20104;-72
2022/04/16 08:36:36;;;;;;;0.60;0.40;;;9.80;99.90;;;;;;4995180;28;20085;-77
2022/04/16 08:39:03;;;;;;;0.40;0.40;;;9.90;99.90;;;;;;4995461;28;20057;-76
2022/04/16 08:41:30;;;;;;;1.25;0.40;;;10.20;99.90;;;;;;5012276;28;20073;-74
2022/04/16 08:43:58;;;;;;;1.90;0.40;;;10.50;99.90;;;;;;4995013;28;20030;-78
2022/04/16 08:46:30;;;;;;;0.30;0.20;;;10.60;99.90;;;;;;5013478;28;20030;-76
2022/04/16 08:48:58;;;;;;;0.60;0.28;;;10.80;99.90;;;;;;5015329;28;20041;-76
2022/04/16 08:51:30;;;;;;;0.77;0.30;;;11.00;99.90;;;;;;5013320;28;20089;-76
2022/04/16 08:53:56;;;;;;;0.30;0.20;;;11.20;99.90;;;;;;4995622;28;20057;-75
2022/04/16 08:56:26;;;;;;;3.60;0.60;;;11.30;99.90;;;;;;5012542;28;20419;-78
2022/04/16 08:58:55;;;;;;;0.93;0.43;;;11.40;99.90;;;;;;5012462;28;20030;-77
2022/04/16 09:01:25;;;;;;;2.85;0.40;;;11.40;99.90;;;;;;5012246;28;20025;-76
2022/04/16 09:03:53;;;;;;;0.70;0.30;;;11.40;99.90;;;;;;4997574;28;20077;-76
2022/04/16 09:06:25;;;;;;;2.40;0.85;;;11.50;99.90;;;;;;5016711;28;20026;-76
2022/04/16 09:08:51;;;;;;;0.30;0.20;;;11.60;99.90;;;;;;4998392;28;20049;-77
2022/04/16 09:11:21;;;;;;;0.43;0.22;;;11.60;99.90;;;;;;5016219;28;20022;-77
2022/04/16 09:13:55;;;;;;;7.43;0.35;;;11.50;99.90;;;;;;5015011;28;20043;-75
2022/04/16 09:16:27;;;;;;;2.05;0.43;;;11.60;99.90;;;;;;4997552;28;20499;-76
2022/04/16 09:18:56;;;;;;;2.08;0.35;;;11.80;99.90;;;;;;5016359;28;20032;-76
2022/04/16 09:21:28;;;;;;;0.10;0.10;;;12.10;99.90;;;;;;4997976;28;20037;-76
2022/04/16 09:24:01;;;;;;;0.60;0.28;;;12.30;99.90;;;;;;5016023;28;20038;-77
2022/04/16 09:26:37;;;;;;;0.70;0.50;;;12.40;99.90;;;;;;5017817;28;20044;-77
2022/04/16 09:29:14;;;;;;;0.60;0.20;;;12.50;99.90;;;;;;5015924;28;20029;-75
2022/04/16 09:31:43;;;;;;;6.15;0.75;;;12.70;99.90;;;;;;5016004;28;20034;-76
2022/04/16 09:34:33;;;;;;;1.95;0.52;;;12.70;99.90;;;;;;4995972;28;20085;-76
2022/04/16 09:37:12;;;;;;;2.78;0.50;;;12.80;99.90;;;;;;5013511;28;20042;-76
2022/04/16 09:39:37;;;;;;;1.65;0.52;;;12.80;99.90;;;;;;4995986;28;20045;-74
2022/04/16 09:42:03;;;;;;;7.97;0.75;;;12.90;99.90;;;;;;5015138;28;20077;-78
2022/04/16 09:44:30;;;;;;;2.17;0.60;;;13.00;99.90;;;;;;4997180;28;20037;-78
2022/04/16 09:46:57;;;;;;;2.03;0.68;;;13.00;99.90;;;;;;4996009;28;20123;-78
2022/04/16 09:49:29;;;;;;;0.77;0.40;;;13.10;99.90;;;;;;5012863;28;20062;-76
2022/04/16 09:52:02;;;;;;;1.58;0.47;;;13.30;99.90;;;;;;5014366;28;20027;-74
2022/04/16 09:54:29;;;;;;;4.43;0.70;;;13.40;99.90;;;;;;4999037;28;20054;-74
2022/04/16 09:57:04;;;;;;;0.82;0.52;;;13.40;99.90;;;;;;4995688;28;20082;-75
2022/04/16 09:59:36;;;;;;;0.60;0.35;;;13.50;99.90;;;;;;5014232;28;20025;-77
2022/04/16 10:02:04;;;;;;;0.38;0.38;;;13.60;99.90;;;;;;4996986;28;20038;-76
2022/04/16 10:04:33;;;;;;;0.90;0.57;;;13.80;99.90;;;;;;5013494;28;20014;-76
2022/04/16 10:06:59;;;;;;;1.00;0.40;;;14.10;99.90;;;;;;5014744;28;20064;-74
2022/04/16 10:09:26;;;;;;;1.48;0.50;;;14.20;99.90;;;;;;5014839;28;20026;-76
2022/04/16 10:15:08;;;;;;;0.52;0.47;;;14.30;99.90;;;;;;5012790;28;20100;-76
2022/04/16 10:17:42;;;;;;;1.00;0.30;;;14.40;99.90;;;;;;4994929;28;20038;-77
2022/04/16 10:20:26;;;;;;;3.45;0.57;;;14.50;99.90;;;;;;5013329;28;20026;-76
2022/04/16 10:23:04;;;;;;;1.27;0.50;;;14.70;99.90;;;;;;4994932;28;20034;-77
2022/04/16 10:25:32;;;;;;;0.30;0.25;;;14.90;99.90;;;;;;4996985;28;20033;-77
2022/04/16 10:28:06;;;;;;;0.30;0.20;;;15.10;99.90;;;;;;5013416;28;20030;-76
2022/04/16 10:30:40;;;;;;;0.97;0.47;;;15.20;99.90;;;;;;5014940;28;20479;-74
2022/04/16 10:33:27;;;;;;;0.30;0.22;;;15.40;99.90;;;;;;5013531;28;20281;-76
2022/04/16 10:35:57;;;;;;;0.38;0.20;;;15.40;99.90;;;;;;4996363;28;20458;-76
2022/04/16 10:38:33;;;;;;;0.88;0.28;;;15.50;99.90;;;;;;4996268;28;20036;-76
2022/04/16 10:41:01;;;;;;;1.27;0.35;;;15.60;99.90;;;;;;5014704;28;20088;-77
2022/04/16 10:43:32;;;;;;;0.63;0.40;;;15.70;99.90;;;;;;5013908;28;20061;-74
2022/04/16 10:46:08;;;;;;;0.47;0.40;;;15.80;99.70;;;;;;5014208;28;20026;-76
2022/04/16 10:48:38;;;;;;;0.20;0.20;;;15.80;99.90;;;;;;5012588;28;20523;-75
2022/04/16 10:51:09;;;;;;;0.88;0.30;;;15.80;99.80;;;;;;5014224;28;20084;-75
2022/04/16 10:53:37;;;;;;;0.77;0.45;;;15.90;99.90;;;;;;5011217;28;20034;-74
2022/04/16 10:56:16;;;;;;;0.35;0.15;;;16.10;99.20;;;;;;5013060;28;20026;-78
2022/04/16 10:58:47;;;;;;;0.25;0.10;;;16.10;97.50;;;;;;5014449;28;20048;-76
2022/04/16 11:01:24;;;;;;;0.47;0.30;;;16.20;99.10;;;;;;4996891;28;20081;-77
2022/04/16 11:03:50;;;;;;;0.57;0.35;;;16.30;99.90;;;;;;4997088;28;20025;-75
2022/04/16 11:06:17;;;;;;;0.20;0.20;;;16.50;95.40;;;;;;4995938;28;20041;-76
2022/04/16 11:08:45;;;;;;;3.20;0.25;;;16.50;96.10;;;;;;5014255;28;20033;-76
2022/04/16 11:11:13;;;;;;;0.50;0.32;;;16.50;96.50;;;;;;4996418;28;20080;-77
2022/04/16 11:13:40;;;;;;;0.35;0.30;;;16.60;95.90;;;;;;4995267;28;20077;-77
2022/04/16 11:16:06;;;;;;;0.25;0.15;;;16.60;98.60;;;;;;4995307;28;20026;-74
2022/04/16 11:18:43;;;;;;;0.20;0.10;;;16.70;96.70;;;;;;4995108;28;20113;-77
2022/04/16 11:21:11;;;;;;;0.17;0.17;;;16.80;95.50;;;;;;4995297;28;20117;-76
2022/04/16 11:23:45;;;;;;;1.58;0.30;;;16.90;94.50;;;;;;5012328;28;20015;-76
2022/04/16 11:34:32;;;;;;;;;;;17.10;95.80;;;;;;5013379;28;20102;-70
2022/04/16 11:36:59;;;;;;;0.43;0.30;;;17.30;91.70;;;;;;5011643;28;19933;-75
2022/04/16 11:39:31;;;;;;;5.50;0.30;;;17.30;91.80;;;;;;4994209;28;20414;-76
2022/04/16 11:41:59;;;;;;;0.30;0.30;;;17.20;92.00;;;;;;4995297;28;20038;-78
2022/04/16 11:44:38;;;;;;;0.57;0.20;;;17.10;93.50;;;;;;4995320;28;20446;-78
2022/04/16 11:47:10;;;;;;;2.72;0.30;;;17.30;92.80;;;;;;4996403;28;20132;-75
2022/04/16 11:49:37;;;;;;;0.57;0.30;;;17.50;91.30;;;;;;4994414;28;20046;-77
2022/04/16 11:52:04;;;;;;;0.52;0.13;;;17.60;94.50;;;;;;4993217;28;20482;-75
2022/04/16 11:54:31;;;;;;;0.35;0.25;;;17.80;90.50;;;;;;4994881;28;20053;-75
2022/04/16 11:56:57;;;;;;;0.20;0.10;;;17.70;91.40;;;;;;4976455;28;20037;-77
2022/04/16 11:59:25;;;;;;;0.35;0.20;;;17.70;90.00;;;;;;4992767;28;20070;-77
2022/04/16 12:02:08;;;;;;;0.80;0.43;;;17.80;88.90;;;;;;4993375;28;20038;-78
2022/04/16 12:04:39;;;;;;;0.95;0.30;;;18.10;90.00;;;;;;4995408;28;20509;-77
2022/04/16 12:07:17;;;;;;;0.05;0.05;;;18.30;91.90;;;;;;4994959;28;20027;-72
2022/04/16 12:09:50;;;;;;;0.75;0.20;;;18.50;86.60;;;;;;4978047;28;20103;-74
2022/04/16 12:12:21;;;;;;;0.30;0.13;;;18.60;88.40;;;;;;4993896;28;20027;-75
2022/04/16 12:14:55;;;;;;;0.10;0.10;;;18.60;90.80;;;;;;4990787;28;20038;-77
2022/04/16 12:17:26;;;;;;;0.20;0.15;;;18.80;90.40;;;;;;4992502;28;20035;-75
2022/04/16 12:20:06;;;;;;;1.27;0.40;;;19.00;85.20;;;;;;4991539;28;20035;-76
2022/04/16 12:22:54;;;;;;;0.73;0.20;;;19.00;82.80;;;;;;4974255;28;20027;-77
2022/04/16 12:25:24;;;;;;;0.65;0.30;;;19.00;84.20;;;;;;4992750;28;20476;-78
2022/04/16 12:27:52;;;;;;;0.50;0.30;;;19.20;83.50;;;;;;4994129;28;20035;-77
2022/04/16 12:30:26;;;;;;;0.65;0.30;;;19.20;88.10;;;;;;4975580;28;20042;-77
2022/04/16 12:33:02;;;;;;;1.25;0.47;;;19.40;88.60;;;;;;4975525;28;20031;-72
2022/04/16 12:35:33;;;;;;;0.30;0.30;;;19.60;82.80;;;;;;4993640;28;20080;-76
2022/04/16 12:38:00;;;;;;;1.20;0.35;;;19.70;86.00;;;;;;4976330;28;20080;-76
2022/04/16 12:40:28;;;;;;;0.50;0.43;;;19.90;83.50;;;;;;4997400;28;20101;-76
2022/04/16 12:42:56;;;;;;;0.20;0.10;;;19.70;83.00;;;;;;4997090;28;20030;-77
2022/04/16 12:45:23;;;;;;;0.28;0.20;;;19.70;84.00;;;;;;4996030;28;20066;-79
2022/04/16 12:47:50;;;;;;;0.20;0.20;;;19.90;83.00;;;;;;5001897;28;20064;-78
2022/04/16 12:50:16;;;;;;;0.30;0.10;;;20.00;80.20;;;;;;5016405;28;20446;-78
2022/04/16 12:52:42;;;;;;;0.63;0.35;;;20.10;83.00;;;;;;5016098;28;20019;-74
2022/04/16 12:55:15;;;;;;;0.32;0.30;;;20.30;82.70;;;;;;5000156;28;20040;-73
2022/04/16 12:57:43;;;;;;;1.92;0.50;;;20.40;75.40;;;;;;5016582;28;20029;-76
2022/04/16 13:00:09;;;;;;;0.68;0.20;;;20.30;81.60;;;;;;4998287;28;20037;-75
2022/04/16 13:02:42;;;;;;;0.50;0.38;;;20.40;74.90;;;;;;5016018;28;20022;-71
2022/04/16 13:05:11;;;;;;;0.40;0.20;;;20.10;78.60;;;;;;5016782;28;20024;-78
2022/04/16 13:07:38;;;;;;;0.45;0.30;;;20.10;79.40;;;;;;5016399;28;20034;-76
2022/04/16 13:10:05;;;;;;;0.93;0.35;;;20.10;77.80;;;;;;4999018;28;20034;-76
2022/04/16 13:12:31;;;;;;;0.22;0.20;;;20.20;78.60;;;;;;5016221;28;20083;-76
2022/04/16 13:14:58;;;;;;;0.38;0.20;;;20.40;76.80;;;;;;4998798;28;20503;-76
2022/04/16 13:17:23;;;;;;;1.08;0.55;;;20.50;77.80;;;;;;5016771;28;20033;-73
2022/04/16 13:19:50;;;;;;;1.10;0.30;;;20.50;76.70;;;;;;5016001;28;20391;-77
2022/04/16 13:22:15;;;;;;;0.43;0.30;;;20.40;75.40;;;;;;5013243;28;20019;-76
2022/04/16 13:24:41;;;;;;;2.75;0.38;;;20.40;75.00;;;;;;5015615;28;20072;-74